Time;durP1;ratioP1;P1;durP2;ratioP2;P2;SDS_P1;SDS_P2;PMS_P1;PMS_P2;Temp;Humidity;BMP_temperature;BMP_pressure;BME280_temperature;BME280_humidity;BME280_pressure;Samples;Min_cycle;Max_cycle;Signal;HPM_P1;HPM_P2
2022/06/22 00:00:37;;;;;;;11.35;6.32;;;;;;;;;;5020931;28;20106;-69
2022/06/22 00:03:04;;;;;;;5.97;5.45;;;;;;;;;;5018841;28;20148;-66
2022/06/22 00:05:37;;;;;;;6.78;6.18;;;;;;;;;;5011088;28;20021;-65
2022/06/22 00:08:04;;;;;;;6.55;5.95;;;;;;;;;;5017965;28;20351;-66
2022/06/22 00:10:31;;;;;;;8.63;6.57;;;;;;;;;;5008893;28;20025;-65
2022/06/22 00:12:58;;;;;;;11.82;7.70;;;;;;;;;;5019023;28;20091;-66
2022/06/22 00:15:32;;;;;;;7.80;7.10;;;;;;;;;;4992942;28;20018;-68
2022/06/22 00:17:58;;;;;;;10.55;7.15;;;;;;;;;;5018692;28;20025;-64
2022/06/22 00:20:23;;;;;;;7.57;5.65;;;;;;;;;;5015749;28;20036;-67
2022/06/22 00:22:50;;;;;;;6.32;5.70;;;;;;;;;;5013670;28;20151;-65
2022/06/22 00:25:21;;;;;;;9.90;5.60;;;;;;;;;;5018503;28;20093;-69
2022/06/22 00:27:46;;;;;;;6.30;5.68;;;;;;;;;;5019771;28;20033;-66
2022/06/22 00:30:12;;;;;;;7.07;6.13;;;;;;;;;;5018031;28;20478;-68
2022/06/22 00:32:37;;;;;;;8.00;6.13;;;;;;;;;;5007496;28;20022;-65
2022/06/22 00:35:21;;;;;;;8.05;6.93;;;;;;;;;;5016163;28;20091;-66
2022/06/22 00:37:46;;;;;;;8.73;6.55;;;;;;;;;;5008428;28;20087;-65
2022/06/22 00:40:14;;;;;;;8.65;7.35;;;;;;;;;;5006001;28;20047;-66
2022/06/22 00:42:49;;;;;;;8.57;7.30;;;;;;;;;;4994991;28;20345;-65
2022/06/22 00:45:34;;;;;;;14.85;10.38;;;;;;;;;;4994051;28;20025;-66
2022/06/22 00:48:18;;;;;;;13.93;9.57;;;;;;;;;;4987946;28;20108;-65
2022/06/22 00:50:45;;;;;;;10.30;7.72;;;;;;;;;;4991845;28;20033;-66
2022/06/22 00:53:11;;;;;;;9.70;8.70;;;;;;;;;;4984639;28;20517;-65
2022/06/22 00:55:40;;;;;;;8.82;7.57;;;;;;;;;;4981476;28;20172;-69
2022/06/22 00:58:21;;;;;;;9.73;7.90;;;;;;;;;;4991567;28;20392;-65
2022/06/22 01:00:59;;;;;;;9.15;7.95;;;;;;;;;;4990452;28;20038;-65
2022/06/22 01:03:43;;;;;;;9.73;8.60;;;;;;;;;;4991212;28;20105;-66
2022/06/22 01:06:08;;;;;;;7.63;6.93;;;;;;;;;;4989221;28;20030;-65
2022/06/22 01:08:52;;;;;;;11.32;7.63;;;;;;;;;;4989981;28;20034;-65
2022/06/22 01:14:09;;;;;;;8.82;6.05;;;;;;;;;;4990793;28;20046;-69
2022/06/22 01:16:37;;;;;;;6.35;5.68;;;;;;;;;;4990003;28;20515;-66
2022/06/22 01:19:20;;;;;;;10.45;6.65;;;;;;;;;;4991683;28;20477;-68
2022/06/22 01:21:51;;;;;;;9.30;6.50;;;;;;;;;;4991619;28;20038;-69
2022/06/22 01:24:23;;;;;;;8.45;7.15;;;;;;;;;;4991017;28;20034;-69
2022/06/22 01:27:06;;;;;;;7.00;6.30;;;;;;;;;;4988831;28;20045;-67
2022/06/22 01:29:32;;;;;;;9.23;7.43;;;;;;;;;;4991055;28;20360;-66
2022/06/22 01:32:00;;;;;;;7.80;7.00;;;;;;;;;;4982072;28;20018;-65
2022/06/22 01:34:30;;;;;;;10.23;7.70;;;;;;;;;;4992828;28;20449;-69
2022/06/22 01:37:00;;;;;;;10.18;6.95;;;;;;;;;;4989405;28;20033;-65
2022/06/22 01:39:25;;;;;;;;;;;;;;;;;;4993462;28;20119;-66
2022/06/22 01:41:53;;;;;;;8.10;6.77;;;;;;;;;;5011506;28;19918;-64
2022/06/22 01:44:40;;;;;;;8.23;6.35;;;;;;;;;;5018511;28;20391;-66
2022/06/22 01:47:24;;;;;;;7.60;6.65;;;;;;;;;;5017478;28;20029;-66
2022/06/22 01:49:49;;;;;;;10.82;7.70;;;;;;;;;;5016039;28;20018;-66
2022/06/22 01:52:17;;;;;;;9.35;7.90;;;;;;;;;;5028861;28;20440;-68
2022/06/22 01:54:50;;;;;;;11.32;8.10;;;;;;;;;;5020237;28;20039;-70
2022/06/22 01:57:25;;;;;;;8.85;8.05;;;;;;;;;;5007696;28;20036;-72
2022/06/22 01:59:59;;;;;;;9.50;8.30;;;;;;;;;;5013730;28;20472;-64
2022/06/22 02:02:36;;;;;;;8.30;7.47;;;;;;;;;;5013553;28;20129;-66
2022/06/22 02:05:20;;;;;;;12.00;7.60;;;;;;;;;;5013541;28;20030;-68
2022/06/22 02:07:52;;;;;;;9.32;7.50;;;;;;;;;;5012786;28;20492;-65
2022/06/22 02:10:23;;;;;;;10.50;7.50;;;;;;;;;;5014372;28;20049;-65
2022/06/22 02:13:09;;;;;;;8.90;7.72;;;;;;;;;;5011883;28;20034;-69
2022/06/22 02:15:46;;;;;;;8.73;7.93;;;;;;;;;;5007562;28;20491;-65
2022/06/22 02:18:16;;;;;;;9.10;8.30;;;;;;;;;;5014774;28;20030;-66
2022/06/22 02:20:42;;;;;;;10.63;9.30;;;;;;;;;;5012795;28;20423;-68
2022/06/22 02:23:10;;;;;;;12.23;8.63;;;;;;;;;;5012973;28;20069;-67
2022/06/22 02:25:40;;;;;;;10.50;9.25;;;;;;;;;;5011511;28;20238;-69
2022/06/22 02:28:05;;;;;;;9.48;8.68;;;;;;;;;;5007546;28;20044;-64
2022/06/22 02:30:31;;;;;;;9.65;8.80;;;;;;;;;;5015312;28;20029;-69
2022/06/22 02:32:57;;;;;;;10.27;8.82;;;;;;;;;;5016273;28;20036;-68
2022/06/22 02:35:22;;;;;;;9.32;8.43;;;;;;;;;;5017012;28;20347;-67
2022/06/22 02:37:54;;;;;;;9.48;8.57;;;;;;;;;;5013201;28;20109;-68
2022/06/22 02:40:25;;;;;;;10.10;8.93;;;;;;;;;;5017148;28;20448;-64
2022/06/22 02:45:35;;;;;;;10.50;9.00;;;;;;;;;;5015794;28;20107;-65
2022/06/22 02:48:19;;;;;;;9.80;7.85;;;;;;;;;;5016474;28;20026;-65
2022/06/22 02:50:51;;;;;;;10.18;8.30;;;;;;;;;;5011884;28;20045;-70
2022/06/22 02:53:24;;;;;;;8.75;7.85;;;;;;;;;;5008483;28;20460;-64
2022/06/22 02:55:50;;;;;;;9.10;8.10;;;;;;;;;;5014701;28;20049;-64
2022/06/22 02:58:28;;;;;;;9.43;8.07;;;;;;;;;;5012032;28;20315;-68
2022/06/22 03:00:54;;;;;;;9.82;8.90;;;;;;;;;;5013231;28;20029;-65
2022/06/22 03:03:20;;;;;;;10.55;8.70;;;;;;;;;;5011464;28;20117;-67
2022/06/22 03:05:48;;;;;;;11.13;8.90;;;;;;;;;;5012817;28;20116;-64
2022/06/22 03:08:14;;;;;;;9.27;8.32;;;;;;;;;;5008050;28;20025;-65
2022/06/22 03:10:45;;;;;;;9.60;8.60;;;;;;;;;;5014820;28;20276;-65
2022/06/22 03:13:12;;;;;;;10.40;8.68;;;;;;;;;;5007992;28;20030;-69
2022/06/22 03:15:38;;;;;;;10.35;8.38;;;;;;;;;;5009368;28;20140;-64
2022/06/22 03:18:04;;;;;;;9.52;7.65;;;;;;;;;;5008272;28;20112;-65
2022/06/22 03:20:34;;;;;;;9.60;8.27;;;;;;;;;;5006387;28;20053;-68
2022/06/22 03:23:15;;;;;;;12.07;8.18;;;;;;;;;;5006733;28;20052;-65
2022/06/22 03:25:44;;;;;;;12.55;8.35;;;;;;;;;;5007558;28;20437;-65
2022/06/22 03:28:13;;;;;;;8.65;7.68;;;;;;;;;;5007140;28;20520;-70
2022/06/22 03:30:52;;;;;;;9.32;7.97;;;;;;;;;;5007673;28;20026;-70
2022/06/22 03:33:34;;;;;;;9.95;8.00;;;;;;;;;;5006072;28;20132;-70
2022/06/22 03:36:01;;;;;;;9.75;8.75;;;;;;;;;;5008312;28;20029;-71
2022/06/22 03:38:36;;;;;;;10.02;9.13;;;;;;;;;;5002618;28;20113;-66
2022/06/22 03:41:11;;;;;;;9.30;8.35;;;;;;;;;;5008288;28;20053;-68
2022/06/22 03:43:45;;;;;;;11.05;8.80;;;;;;;;;;5005942;28;20053;-69
2022/06/22 03:46:16;;;;;;;9.85;8.80;;;;;;;;;;5004194;28;20359;-68
2022/06/22 03:48:48;;;;;;;9.27;8.38;;;;;;;;;;5002491;28;20121;-66
2022/06/22 03:51:19;;;;;;;11.00;8.98;;;;;;;;;;5004499;28;20040;-70
2022/06/22 03:53:54;;;;;;;9.48;8.63;;;;;;;;;;5006995;28;20037;-65
2022/06/22 03:56:22;;;;;;;10.30;9.20;;;;;;;;;;5007675;28;20061;-66
2022/06/22 03:58:49;;;;;;;9.13;8.23;;;;;;;;;;5005851;28;22953;-64
2022/06/22 04:01:15;;;;;;;10.63;8.70;;;;;;;;;;5005044;28;20171;-70
2022/06/22 04:03:41;;;;;;;10.23;9.10;;;;;;;;;;5005927;28;20076;-65
2022/06/22 04:06:07;;;;;;;8.98;8.07;;;;;;;;;;5006169;28;20152;-65
2022/06/22 04:08:39;;;;;;;11.55;9.07;;;;;;;;;;5007819;28;20029;-65
2022/06/22 04:11:30;;;;;;;10.60;9.43;;;;;;;;;;5006429;28;20040;-67
2022/06/22 04:14:10;;;;;;;14.35;8.98;;;;;;;;;;5004168;28;20120;-64
2022/06/22 04:16:37;;;;;;;9.43;8.52;;;;;;;;;;5007458;28;20120;-66
2022/06/22 04:19:12;;;;;;;9.45;8.55;;;;;;;;;;5007511;28;20037;-71
2022/06/22 04:21:46;;;;;;;9.77;8.80;;;;;;;;;;5005403;28;20029;-65
2022/06/22 04:24:26;;;;;;;10.60;9.32;;;;;;;;;;5009473;28;20052;-66
2022/06/22 04:26:54;;;;;;;10.68;9.15;;;;;;;;;;5009826;28;20087;-65
2022/06/22 04:29:22;;;;;;;9.93;8.93;;;;;;;;;;5011171;28;21009;-65
2022/06/22 04:31:56;;;;;;;9.95;8.75;;;;;;;;;;5011615;28;20044;-65
2022/06/22 04:34:37;;;;;;;10.82;8.68;;;;;;;;;;5007847;28;20369;-67
2022/06/22 04:37:07;;;;;;;10.32;9.30;;;;;;;;;;5010012;28;20108;-72
2022/06/22 04:39:52;;;;;;;13.43;8.75;;;;;;;;;;5014359;28;20037;-70
2022/06/22 04:42:18;;;;;;;8.98;8.07;;;;;;;;;;5016902;28;20041;-67
2022/06/22 04:44:48;;;;;;;9.75;8.32;;;;;;;;;;5017602;28;20491;-70
2022/06/22 04:47:25;;;;;;;8.35;7.55;;;;;;;;;;5009003;28;20033;-70
2022/06/22 04:49:53;;;;;;;11.45;9.10;;;;;;;;;;5008501;28;20025;-69
2022/06/22 04:52:24;;;;;;;10.15;9.15;;;;;;;;;;5008153;28;20022;-68
2022/06/22 04:54:52;;;;;;;9.70;8.73;;;;;;;;;;5007314;28;20021;-69
2022/06/22 04:57:21;;;;;;;10.70;9.52;;;;;;;;;;5008082;28;20332;-70
2022/06/22 04:59:47;;;;;;;10.55;8.80;;;;;;;;;;5007589;28;20453;-70
2022/06/22 05:02:15;;;;;;;12.10;8.68;;;;;;;;;;5007608;28;20120;-67
2022/06/22 05:04:42;;;;;;;11.23;9.15;;;;;;;;;;5007447;28;20456;-70
2022/06/22 05:07:23;;;;;;;10.52;9.13;;;;;;;;;;5008062;28;20033;-69
2022/06/22 05:10:11;;;;;;;8.95;8.02;;;;;;;;;;5007994;28;20069;-67
2022/06/22 05:12:44;;;;;;;10.50;8.95;;;;;;;;;;4997523;28;20052;-68
2022/06/22 05:15:17;;;;;;;10.05;8.38;;;;;;;;;;5007418;28;20037;-71
2022/06/22 05:17:42;;;;;;;10.50;8.88;;;;;;;;;;5007938;28;20371;-69
2022/06/22 05:20:08;;;;;;;9.85;8.60;;;;;;;;;;4990763;28;20021;-67
2022/06/22 05:22:33;;;;;;;8.43;7.65;;;;;;;;;;5008322;28;20040;-67
2022/06/22 05:25:01;;;;;;;7.95;7.15;;;;;;;;;;4990071;28;20038;-72
2022/06/22 05:27:28;;;;;;;8.70;7.78;;;;;;;;;;5007855;28;20036;-69
2022/06/22 05:29:56;;;;;;;8.70;7.45;;;;;;;;;;5007559;28;20036;-67
2022/06/22 05:32:26;;;;;;;9.10;7.80;;;;;;;;;;5008001;28;21164;-67
2022/06/22 05:34:54;;;;;;;8.20;7.45;;;;;;;;;;5010929;28;20022;-68
2022/06/22 05:37:22;;;;;;;11.32;8.35;;;;;;;;;;5011758;28;20111;-67
2022/06/22 05:39:47;;;;;;;9.23;8.10;;;;;;;;;;5012070;28;20156;-67
2022/06/22 05:42:14;;;;;;;9.52;7.05;;;;;;;;;;5010485;28;20109;-73
2022/06/22 05:44:40;;;;;;;9.13;7.45;;;;;;;;;;5007837;28;20099;-69
2022/06/22 05:47:05;;;;;;;9.02;8.07;;;;;;;;;;5008513;28;20038;-67
2022/06/22 05:49:37;;;;;;;10.23;8.18;;;;;;;;;;5007824;28;20045;-71
2022/06/22 05:52:06;;;;;;;8.57;7.75;;;;;;;;;;5006273;28;20017;-72
2022/06/22 05:54:40;;;;;;;7.87;7.13;;;;;;;;;;5007270;28;20030;-66
2022/06/22 05:57:25;;;;;;;8.80;7.43;;;;;;;;;;5006917;28;20068;-70
2022/06/22 05:59:56;;;;;;;9.20;7.22;;;;;;;;;;5007687;28;20036;-70
2022/06/22 06:02:27;;;;;;;10.95;7.40;;;;;;;;;;5016757;28;20044;-65
2022/06/22 06:04:57;;;;;;;9.23;8.23;;;;;;;;;;5018298;28;20029;-67
2022/06/22 06:07:31;;;;;;;9.82;7.38;;;;;;;;;;5015593;28;20032;-70
2022/06/22 06:09:57;;;;;;;8.93;8.02;;;;;;;;;;5014420;28;20043;-70
2022/06/22 06:12:29;;;;;;;9.35;7.68;;;;;;;;;;5012200;28;20723;-66
2022/06/22 06:14:54;;;;;;;8.23;7.47;;;;;;;;;;5010364;28;20028;-70
2022/06/22 06:17:22;;;;;;;10.13;7.65;;;;;;;;;;4993893;28;20033;-70
2022/06/22 06:19:49;;;;;;;10.98;7.68;;;;;;;;;;5016928;28;20368;-71
2022/06/22 06:22:14;;;;;;;9.40;8.30;;;;;;;;;;5016478;28;20477;-69
2022/06/22 06:27:34;;;;;;;10.75;8.13;;;;;;;;;;5018093;28;20041;-69
2022/06/22 06:27:34;;;;;;;9.35;6.68;;;;;;;;;;5017512;28;20665;-71
2022/06/22 06:30:07;;;;;;;10.27;7.07;;;;;;;;;;5018938;28;20092;-69
2022/06/22 06:32:32;;;;;;;10.57;7.65;;;;;;;;;;5017806;28;20038;-70
2022/06/22 06:35:11;;;;;;;23.35;8.88;;;;;;;;;;5014727;28;20036;-75
2022/06/22 06:37:47;;;;;;;13.73;7.55;;;;;;;;;;5019495;28;20433;-70
2022/06/22 06:40:14;;;;;;;13.60;7.60;;;;;;;;;;5017458;28;20061;-70
2022/06/22 06:42:53;;;;;;;9.43;6.82;;;;;;;;;;5017602;28;20079;-69
2022/06/22 06:45:22;;;;;;;9.07;7.00;;;;;;;;;;5015453;28;20039;-70
2022/06/22 06:47:48;;;;;;;10.18;7.28;;;;;;;;;;5015015;28;20022;-69
2022/06/22 06:50:16;;;;;;;7.97;6.13;;;;;;;;;;5008143;28;20025;-71
2022/06/22 06:52:47;;;;;;;8.70;5.95;;;;;;;;;;5015475;28;20027;-75
2022/06/22 06:55:13;;;;;;;12.25;6.65;;;;;;;;;;5009638;28;20458;-72
2022/06/22 06:57:41;;;;;;;7.28;5.53;;;;;;;;;;5008719;28;20025;-72
2022/06/22 07:00:11;;;;;;;7.63;5.47;;;;;;;;;;5008374;28;20018;-71
2022/06/22 07:02:38;;;;;;;5.88;5.38;;;;;;;;;;5009472;28;20341;-71
2022/06/22 07:05:06;;;;;;;6.85;5.13;;;;;;;;;;5008108;28;20605;-71
2022/06/22 07:07:49;;;;;;;5.05;4.55;;;;;;;;;;5006039;28;20029;-71
2022/06/22 07:10:18;;;;;;;7.05;5.13;;;;;;;;;;5009290;28;20033;-69
2022/06/22 07:13:04;;;;;;;6.03;4.97;;;;;;;;;;5010742;28;20319;-68
2022/06/22 07:15:39;;;;;;;6.53;5.40;;;;;;;;;;5013503;28;20045;-69
2022/06/22 07:18:25;;;;;;;7.95;5.25;;;;;;;;;;5027168;28;20083;-67
2022/06/22 07:21:13;;;;;;;7.13;5.40;;;;;;;;;;5028140;28;20034;-69
2022/06/22 07:23:42;;;;;;;5.65;5.05;;;;;;;;;;5027881;28;20051;-72
2022/06/22 07:26:10;;;;;;;6.55;5.07;;;;;;;;;;5026976;28;20042;-70
2022/06/22 07:28:39;;;;;;;6.47;5.53;;;;;;;;;;5028873;28;20038;-69
2022/06/22 07:31:16;;;;;;;5.88;5.38;;;;;;;;;;5028375;28;20032;-69
2022/06/22 07:34:10;;;;;;;7.10;5.38;;;;;;;;;;5026777;28;20021;-71
2022/06/22 07:36:41;;;;;;;9.07;5.90;;;;;;;;;;5009952;28;20084;-68
2022/06/22 07:39:14;;;;;;;6.25;5.18;;;;;;;;;;5026550;28;20021;-69
2022/06/22 07:41:40;;;;;;;7.22;5.50;;;;;;;;;;5027122;28;20034;-69
2022/06/22 07:44:07;;;;;;;5.93;3.67;;;;;;;;;;5027685;28;20045;-69
2022/06/22 07:46:40;;;;;;;5.95;3.05;;;;;;;;;;5026682;28;20072;-69
2022/06/22 07:49:24;;;;;;;4.68;2.72;;;;;;;;;;5027553;28;20167;-70
2022/06/22 07:51:51;;;;;;;3.13;2.53;;;;;;;;;;5024184;28;20037;-72
2022/06/22 07:54:20;;;;;;;3.75;2.90;;;;;;;;;;5027762;28;20527;-67
2022/06/22 07:56:58;;;;;;;4.90;2.60;;;;;;;;;;5029630;28;20029;-70
2022/06/22 07:59:43;;;;;;;6.30;2.80;;;;;;;;;;5023404;28;20032;-70
2022/06/22 08:02:22;;;;;;;2.50;2.30;;;;;;;;;;5025372;28;20108;-69
2022/06/22 08:04:51;;;;;;;3.30;2.17;;;;;;;;;;5026141;28;20037;-69
2022/06/22 08:07:24;;;;;;;3.13;2.53;;;;;;;;;;5022121;28;20411;-69
2022/06/22 08:10:06;;;;;;;5.93;2.90;;;;;;;;;;5012196;28;20017;-69
2022/06/22 08:12:35;;;;;;;5.38;2.60;;;;;;;;;;5014215;28;20043;-70
2022/06/22 08:15:04;;;;;;;7.18;2.90;;;;;;;;;;5019964;28;20033;-69
2022/06/22 08:17:29;;;;;;;4.95;2.45;;;;;;;;;;5017647;28;20091;-69
2022/06/22 08:19:54;;;;;;;5.55;2.65;;;;;;;;;;5020593;28;20033;-68
2022/06/22 08:22:20;;;;;;;7.25;2.45;;;;;;;;;;5015523;28;20091;-70
2022/06/22 08:24:47;;;;;;;4.57;3.00;;;;;;;;;;5014546;28;20041;-71
2022/06/22 08:27:14;;;;;;;3.97;2.60;;;;;;;;;;5019510;28;20025;-68
2022/06/22 08:29:39;;;;;;;7.38;3.05;;;;;;;;;;5019282;28;20076;-68
2022/06/22 08:32:11;;;;;;;4.40;2.30;;;;;;;;;;5024401;28;20029;-70
2022/06/22 08:34:39;;;;;;;3.58;2.80;;;;;;;;;;5016552;28;20044;-69
2022/06/22 08:37:07;;;;;;;6.30;2.70;;;;;;;;;;5017892;28;20025;-68
2022/06/22 08:39:37;;;;;;;2.60;2.40;;;;;;;;;;5017474;28;20462;-73
2022/06/22 08:42:02;;;;;;;3.22;2.60;;;;;;;;;;5009393;28;20032;-68
2022/06/22 08:44:47;;;;;;;3.38;2.53;;;;;;;;;;5019144;28;20029;-73
2022/06/22 08:47:22;;;;;;;3.33;2.40;;;;;;;;;;5017348;28;20110;-72
2022/06/22 08:49:50;;;;;;;3.45;2.42;;;;;;;;;;5018519;28;20029;-69
2022/06/22 08:52:21;;;;;;;4.20;2.65;;;;;;;;;;5018009;28;20088;-70
2022/06/22 08:55:04;;;;;;;4.18;2.75;;;;;;;;;;5008917;28;20346;-69
2022/06/22 08:57:40;;;;;;;3.20;2.75;;;;;;;;;;5008962;28;20021;-72
2022/06/22 09:00:12;;;;;;;4.57;2.50;;;;;;;;;;5007642;28;20087;-69
2022/06/22 09:02:41;;;;;;;3.47;2.47;;;;;;;;;;5007869;28;20461;-70
2022/06/22 09:05:06;;;;;;;;;;;;;;;;;;5007317;28;20026;-73
2022/06/22 09:07:32;;;;;;;3.80;2.70;;;;;;;;;;5007807;28;19920;-71
2022/06/22 09:09:57;;;;;;;3.28;2.35;;;;;;;;;;5007711;28;20969;-70
2022/06/22 09:12:42;;;;;;;3.42;3.13;;;;;;;;;;5008636;28;20087;-69
2022/06/22 09:15:25;;;;;;;3.88;2.35;;;;;;;;;;5010698;28;20098;-68
2022/06/22 09:17:51;;;;;;;3.65;3.22;;;;;;;;;;5008125;28;20348;-69
2022/06/22 09:20:25;;;;;;;3.55;2.70;;;;;;;;;;5008791;28;20037;-76
2022/06/22 09:22:55;;;;;;;4.72;3.03;;;;;;;;;;5005744;28;20029;-75
2022/06/22 09:25:34;;;;;;;5.63;2.50;;;;;;;;;;5016455;28;20030;-71
2022/06/22 09:28:17;;;;;;;4.03;2.50;;;;;;;;;;5018515;28;20036;-76
2022/06/22 09:31:01;;;;;;;3.15;2.50;;;;;;;;;;5017242;28;20041;-75
2022/06/22 09:33:33;;;;;;;3.88;2.70;;;;;;;;;;5018490;28;20037;-74
2022/06/22 09:36:22;;;;;;;6.18;3.03;;;;;;;;;;5020232;28;20026;-70
2022/06/22 09:39:03;;;;;;;3.97;2.95;;;;;;;;;;5011023;28;20025;-70
2022/06/22 09:41:47;;;;;;;3.13;2.83;;;;;;;;;;5011206;28;20053;-69
2022/06/22 09:44:28;;;;;;;6.57;2.92;;;;;;;;;;5012407;28;20441;-69
2022/06/22 09:47:05;;;;;;;3.47;2.50;;;;;;;;;;5018581;28;20029;-73
2022/06/22 09:49:33;;;;;;;3.90;2.47;;;;;;;;;;5017376;28;20018;-68
2022/06/22 09:51:58;;;;;;;6.13;2.70;;;;;;;;;;5018955;28;20021;-67
2022/06/22 09:57:26;;;;;;;7.13;2.38;;;;;;;;;;5016368;28;20044;-67
2022/06/22 09:59:51;;;;;;;2.33;2.13;;;;;;;;;;5019435;28;20056;-69
2022/06/22 10:02:39;;;;;;;3.72;2.30;;;;;;;;;;5009210;28;20120;-68
2022/06/22 10:05:04;;;;;;;3.35;2.00;;;;;;;;;;5021851;28;20031;-69
2022/06/22 10:07:29;;;;;;;2.97;2.25;;;;;;;;;;5022709;28;20026;-67
2022/06/22 10:10:14;;;;;;;1.95;1.77;;;;;;;;;;5018908;28;20666;-70
2022/06/22 10:12:58;;;;;;;1.95;1.80;;;;;;;;;;5011428;28;20518;-69
2022/06/22 10:15:29;;;;;;;3.72;2.15;;;;;;;;;;5019679;28;20356;-69
2022/06/22 10:18:00;;;;;;;3.78;2.38;;;;;;;;;;5021826;28;20029;-69
2022/06/22 10:20:41;;;;;;;3.42;2.60;;;;;;;;;;5017938;28;20040;-72
2022/06/22 10:23:06;;;;;;;3.05;2.53;;;;;;;;;;5016612;28;20419;-71
2022/06/22 10:25:32;;;;;;;7.22;2.70;;;;;;;;;;5020634;28;20033;-69
2022/06/22 10:27:57;;;;;;;4.30;2.20;;;;;;;;;;5014655;28;20433;-69
2022/06/22 10:30:45;;;;;;;5.28;2.65;;;;;;;;;;5022721;28;20037;-71
2022/06/22 10:33:15;;;;;;;3.22;2.58;;;;;;;;;;5021866;28;20030;-69
2022/06/22 10:35:59;;;;;;;7.38;2.22;;;;;;;;;;5019019;28;20035;-71
2022/06/22 10:38:43;;;;;;;2.92;2.05;;;;;;;;;;5022812;28;20025;-71
2022/06/22 10:46:46;;;;;;;3.63;2.38;;;;;;;;;;5021131;28;20095;-70
2022/06/22 10:49:29;;;;;;;2.92;2.53;;;;;;;;;;5021690;28;20033;-66
2022/06/22 10:51:55;;;;;;;2.83;2.10;;;;;;;;;;5021084;28;20044;-67
2022/06/22 10:54:39;;;;;;;10.25;2.92;;;;;;;;;;5018637;28;20037;-69
2022/06/22 10:57:22;;;;;;;3.33;2.33;;;;;;;;;;5015712;28;20348;-68
2022/06/22 10:59:51;;;;;;;2.80;2.50;;;;;;;;;;5018148;28;20337;-70
2022/06/22 11:02:26;;;;;;;3.45;2.47;;;;;;;;;;5021483;28;20034;-70
2022/06/22 11:05:27;;;;;;;2.80;2.22;;;;;;;;;;5018283;28;20080;-71
2022/06/22 11:08:27;;;;;;;2.70;2.28;;;;;;;;;;4960218;28;20065;-73
2022/06/22 11:11:11;;;;;;;2.60;2.20;;;;;;;;;;4961031;28;20764;-68
2022/06/22 11:13:54;;;;;;;2.60;2.40;;;;;;;;;;5006321;28;20460;-68
2022/06/22 11:16:25;;;;;;;4.90;2.55;;;;;;;;;;5019973;28;20025;-69
2022/06/22 11:18:51;;;;;;;4.05;2.92;;;;;;;;;;5019807;28;20029;-69
2022/06/22 11:21:16;;;;;;;4.30;3.40;;;;;;;;;;5021005;28;20025;-71
2022/06/22 11:24:01;;;;;;;6.22;3.35;;;;;;;;;;5021227;28;20040;-67
2022/06/22 11:32:18;;;;;;;5.95;3.05;;;;;;;;;;5021094;28;20087;-68
2022/06/22 11:34:59;;;;;;;5.18;2.60;;;;;;;;;;5018000;28;20025;-71
2022/06/22 11:37:42;;;;;;;3.90;2.72;;;;;;;;;;5020313;28;20029;-70
2022/06/22 11:40:07;;;;;;;4.45;2.92;;;;;;;;;;5021040;28;20041;-68
2022/06/22 11:42:49;;;;;;;4.25;2.90;;;;;;;;;;5019767;28;20513;-69
2022/06/22 11:45:58;;;;;;;4.40;3.17;;;;;;;;;;5019890;28;20040;-68
2022/06/22 11:48:25;;;;;;;5.07;3.70;;;;;;;;;;5015069;28;20380;-68
2022/06/22 11:51:02;;;;;;;5.28;4.40;;;;;;;;;;5003878;28;20398;-68
2022/06/22 11:53:46;;;;;;;5.95;4.60;;;;;;;;;;5021005;28;20110;-68
2022/06/22 11:56:17;;;;;;;7.47;4.15;;;;;;;;;;5021697;28;20013;-68
2022/06/22 11:58:50;;;;;;;5.50;4.10;;;;;;;;;;5020778;28;20029;-67
2022/06/22 12:01:36;;;;;;;8.10;4.43;;;;;;;;;;5021257;28;20022;-67
2022/06/22 12:04:10;;;;;;;5.78;4.53;;;;;;;;;;5002352;28;20438;-68
2022/06/22 12:06:54;;;;;;;6.50;4.72;;;;;;;;;;5020155;28;20401;-68
2022/06/22 12:09:26;;;;;;;7.70;5.60;;;;;;;;;;5019064;28;20021;-70
2022/06/22 12:12:10;;;;;;;6.47;4.82;;;;;;;;;;5018506;28;20025;-66
2022/06/22 12:15:08;;;;;;;6.97;5.55;;;;;;;;;;5019389;28;20033;-70
2022/06/22 12:17:36;;;;;;;8.20;5.57;;;;;;;;;;5017606;28;20033;-74
2022/06/22 12:20:25;;;;;;;9.13;5.10;;;;;;;;;;5020609;28;20009;-68
2022/06/22 12:23:05;;;;;;;9.18;5.38;;;;;;;;;;5020786;28;20021;-68
2022/06/22 12:25:43;;;;;;;6.63;4.90;;;;;;;;;;5018807;28;20049;-66
2022/06/22 12:28:31;;;;;;;6.30;4.88;;;;;;;;;;5019094;28;20033;-67
2022/06/22 12:31:15;;;;;;;10.23;4.88;;;;;;;;;;5019752;28;20025;-69
2022/06/22 12:33:51;;;;;;;6.07;4.78;;;;;;;;;;5019817;28;20040;-69
2022/06/22 12:36:29;;;;;;;6.47;4.72;;;;;;;;;;5020741;28;20025;-73
2022/06/22 12:38:56;;;;;;;6.25;5.07;;;;;;;;;;5019700;28;20025;-66
2022/06/22 12:41:30;;;;;;;12.15;4.90;;;;;;;;;;5000719;28;20053;-67
2022/06/22 12:43:59;;;;;;;5.82;4.20;;;;;;;;;;4999910;28;20109;-69
2022/06/22 12:46:24;;;;;;;5.18;4.50;;;;;;;;;;4999139;28;20034;-66
2022/06/22 12:48:49;;;;;;;6.47;5.05;;;;;;;;;;5000850;28;20046;-73
2022/06/22 12:51:15;;;;;;;7.60;5.03;;;;;;;;;;5000758;28;20033;-68
2022/06/22 12:53:49;;;;;;;6.68;5.15;;;;;;;;;;5001037;28;20322;-69
2022/06/22 12:56:24;;;;;;;5.80;4.78;;;;;;;;;;5000473;28;20026;-69
2022/06/22 12:58:54;;;;;;;6.25;4.57;;;;;;;;;;5000808;28;20065;-68
2022/06/22 13:01:19;;;;;;;6.32;4.38;;;;;;;;;;5000246;28;20361;-68
2022/06/22 13:03:54;;;;;;;6.47;4.90;;;;;;;;;;5000941;28;20038;-69
2022/06/22 13:06:21;;;;;;;5.57;3.78;;;;;;;;;;5000293;28;20041;-72
2022/06/22 13:08:47;;;;;;;6.65;3.65;;;;;;;;;;5000039;28;20032;-69
2022/06/22 13:11:19;;;;;;;5.43;3.83;;;;;;;;;;5002439;28;20026;-70
2022/06/22 13:13:56;;;;;;;7.28;4.05;;;;;;;;;;4999320;28;20108;-69
2022/06/22 13:16:33;;;;;;;5.32;3.80;;;;;;;;;;4999940;28;20452;-69
2022/06/22 13:19:11;;;;;;;4.50;3.95;;;;;;;;;;4999733;28;20034;-74
2022/06/22 13:21:54;;;;;;;5.40;3.53;;;;;;;;;;5000350;28;20022;-67
2022/06/22 13:24:34;;;;;;;5.90;4.47;;;;;;;;;;4999648;28;20030;-75
2022/06/22 13:27:03;;;;;;;4.00;3.45;;;;;;;;;;4999172;28;20034;-70
2022/06/22 13:29:47;;;;;;;3.63;3.25;;;;;;;;;;4988715;28;20100;-69
2022/06/22 13:32:13;;;;;;;6.05;3.50;;;;;;;;;;4988254;28;20416;-71
2022/06/22 13:34:58;;;;;;;3.40;2.90;;;;;;;;;;4988599;28;20053;-70
2022/06/22 13:37:28;;;;;;;4.38;3.22;;;;;;;;;;4990097;28;20030;-70
2022/06/22 13:39:53;;;;;;;7.55;3.40;;;;;;;;;;4997534;28;20049;-70
2022/06/22 13:42:19;;;;;;;4.03;3.60;;;;;;;;;;5009694;28;20024;-71
2022/06/22 13:44:56;;;;;;;3.50;3.20;;;;;;;;;;5023096;28;20053;-75
2022/06/22 13:47:41;;;;;;;6.25;3.30;;;;;;;;;;5022006;28;20053;-70
2022/06/22 13:50:28;;;;;;;4.68;3.13;;;;;;;;;;5011557;28;20160;-69
2022/06/22 13:52:54;;;;;;;4.95;3.40;;;;;;;;;;5008888;28;20030;-69
2022/06/22 13:55:26;;;;;;;4.68;3.40;;;;;;;;;;5017417;28;20033;-70
2022/06/22 13:58:14;;;;;;;7.35;3.38;;;;;;;;;;5021473;28;20030;-70
2022/06/22 14:00:46;;;;;;;7.20;4.10;;;;;;;;;;5008954;28;20090;-70
2022/06/22 14:03:17;;;;;;;6.65;4.05;;;;;;;;;;5022980;28;20461;-68
2022/06/22 14:05:55;;;;;;;3.95;3.22;;;;;;;;;;5019324;28;20037;-72
2022/06/22 14:08:36;;;;;;;6.33;3.77;;;;;;;;;;5011833;28;20017;-72
2022/06/22 14:11:04;;;;;;;6.10;3.92;;;;;;;;;;5012806;28;20736;-71
2022/06/22 14:13:48;;;;;;;8.90;3.67;;;;;;;;;;5010516;28;20401;-73
2022/06/22 14:16:23;;;;;;;5.13;3.45;;;;;;;;;;5011507;28;20283;-72
2022/06/22 14:18:48;;;;;;;3.85;3.40;;;;;;;;;;5010852;28;20410;-74
2022/06/22 14:21:18;;;;;;;4.57;3.83;;;;;;;;;;5010287;28;22792;-71
2022/06/22 14:23:44;;;;;;;5.28;3.10;;;;;;;;;;5011477;28;20040;-72
2022/06/22 14:26:26;;;;;;;6.05;3.88;;;;;;;;;;5010795;28;20045;-75
2022/06/22 14:28:51;;;;;;;7.03;4.10;;;;;;;;;;5011294;28;20509;-69
2022/06/22 14:31:21;;;;;;;7.80;3.35;;;;;;;;;;5010320;28;20422;-74
2022/06/22 14:33:46;;;;;;;4.05;3.67;;;;;;;;;;5008599;28;20029;-71
2022/06/22 14:36:18;;;;;;;5.85;2.83;;;;;;;;;;5019369;28;20448;-71
2022/06/22 14:38:47;;;;;;;7.45;3.40;;;;;;;;;;5019288;28;20036;-70
2022/06/22 14:41:12;;;;;;;3.42;3.13;;;;;;;;;;5018460;28;20046;-70
2022/06/22 14:44:04;;;;;;;5.38;3.05;;;;;;;;;;5021326;28;20033;-69
2022/06/22 14:46:38;;;;;;;4.35;2.95;;;;;;;;;;4989982;28;20053;-73
2022/06/22 14:49:16;;;;;;;6.25;2.90;;;;;;;;;;5019247;28;20027;-69
2022/06/22 14:51:41;;;;;;;3.30;3.00;;;;;;;;;;5019924;28;20025;-70
2022/06/22 14:54:15;;;;;;;4.85;3.00;;;;;;;;;;5021176;28;20044;-76
2022/06/22 14:56:46;;;;;;;6.22;3.33;;;;;;;;;;5015973;28;20061;-70
2022/06/22 14:59:31;;;;;;;6.70;3.00;;;;;;;;;;5016552;28;20033;-72
2022/06/22 15:01:58;;;;;;;5.60;2.92;;;;;;;;;;5021315;28;20440;-70
2022/06/22 15:04:36;;;;;;;3.30;3.00;;;;;;;;;;5019210;28;20041;-75
2022/06/22 15:07:07;;;;;;;5.00;3.30;;;;;;;;;;5017934;28;20484;-72
2022/06/22 15:09:35;;;;;;;9.63;3.42;;;;;;;;;;5019711;28;20357;-71
2022/06/22 15:14:52;;;;;;;6.65;3.30;;;;;;;;;;5008534;28;20060;-72
2022/06/22 15:17:38;;;;;;;4.13;2.75;;;;;;;;;;5007020;28;20021;-71
2022/06/22 15:20:14;;;;;;;4.78;2.97;;;;;;;;;;5009723;28;20037;-74
2022/06/22 15:22:46;;;;;;;5.05;2.78;;;;;;;;;;5010329;28;20044;-73
2022/06/22 15:25:41;;;;;;;3.35;3.05;;;;;;;;;;5010102;28;20041;-76
2022/06/22 15:28:17;;;;;;;5.00;2.85;;;;;;;;;;5004710;28;20362;-71
2022/06/22 15:30:46;;;;;;;4.65;3.10;;;;;;;;;;5017271;28;20396;-71
2022/06/22 15:33:20;;;;;;;4.93;2.88;;;;;;;;;;5020495;28;20108;-72
2022/06/22 15:35:54;;;;;;;4.90;2.97;;;;;;;;;;5018183;28;20030;-75
2022/06/22 15:38:20;;;;;;;3.83;2.70;;;;;;;;;;5009704;28;20514;-72